sensor_id;sensor_type;location;lat;lon;timestamp;temperature;humidity
15199;DHT22;7700;48.654;9.070;2024-02-21T00:01:39;5.90;99.90
15199;DHT22;7700;48.654;9.070;2024-02-21T00:04:04;5.90;99.90
15199;DHT22;7700;48.654;9.070;2024-02-21T00:06:31;5.90;99.90
15199;DHT22;7700;48.654;9.070;2024-02-21T00:08:56;5.90;99.90
15199;DHT22;7700;48.654;9.070;2024-02-21T00:11:22;5.90;99.90
15199;DHT22;7700;48.654;9.070;2024-02-21T00:13:47;5.80;99.90
15199;DHT22;7700;48.654;9.070;2024-02-21T00:16:13;5.80;99.90
15199;DHT22;7700;48.654;9.070;2024-02-21T00:18:41;5.80;99.90
15199;DHT22;7700;48.654;9.070;2024-02-21T00:21:06;5.80;99.90
15199;DHT22;7700;48.654;9.070;2024-02-21T00:23:32;5.80;99.90
15199;DHT22;7700;48.654;9.070;2024-02-21T00:25:57;5.80;99.90
15199;DHT22;7700;48.654;9.070;2024-02-21T00:28:23;5.80;99.90
15199;DHT22;7700;48.654;9.070;2024-02-21T00:30:48;5.80;99.90
15199;DHT22;7700;48.654;9.070;2024-02-21T00:33:16;5.80;99.90
15199;DHT22;7700;48.654;9.070;2024-02-21T00:35:41;5.60;99.90
15199;DHT22;7700;48.654;9.070;2024-02-21T00:38:07;5.60;99.90
15199;DHT22;7700;48.654;9.070;2024-02-21T00:40:33;5.60;99.90
15199;DHT22;7700;48.654;9.070;2024-02-21T00:42:59;5.50;99.90
15199;DHT22;7700;48.654;9.070;2024-02-21T00:45:24;5.50;99.90
15199;DHT22;7700;48.654;9.070;2024-02-21T00:47:50;5.50;99.90
15199;DHT22;7700;48.654;9.070;2024-02-21T00:50:15;5.50;99.90
15199;DHT22;7700;48.654;9.070;2024-02-21T00:52:41;5.60;99.90
15199;DHT22;7700;48.654;9.070;2024-02-21T00:55:07;5.60;99.90
15199;DHT22;7700;48.654;9.070;2024-02-21T00:57:33;5.70;99.90
15199;DHT22;7700;48.654;9.070;2024-02-21T00:59:58;5.70;99.90
15199;DHT22;7700;48.654;9.070;2024-02-21T01:02:24;5.70;99.90
15199;DHT22;7700;48.654;9.070;2024-02-21T01:04:49;5.80;99.90
15199;DHT22;7700;48.654;9.070;2024-02-21T01:07:15;5.70;99.90
15199;DHT22;7700;48.654;9.070;2024-02-21T01:09:40;5.80;99.90
15199;DHT22;7700;48.654;9.070;2024-02-21T01:12:06;5.80;99.90
15199;DHT22;7700;48.654;9.070;2024-02-21T01:14:31;5.80;99.90
15199;DHT22;7700;48.654;9.070;2024-02-21T01:16:57;5.90;99.90
15199;DHT22;7700;48.654;9.070;2024-02-21T01:19:22;5.90;99.90
15199;DHT22;7700;48.654;9.070;2024-02-21T01:21:48;5.80;99.90
15199;DHT22;7700;48.654;9.070;2024-02-21T01:24:13;5.80;99.90
15199;DHT22;7700;48.654;9.070;2024-02-21T01:26:40;5.70;99.90
15199;DHT22;7700;48.654;9.070;2024-02-21T01:29:05;5.70;99.90
15199;DHT22;7700;48.654;9.070;2024-02-21T01:31:31;5.70;99.90
15199;DHT22;7700;48.654;9.070;2024-02-21T01:33:57;5.80;99.90
15199;DHT22;7700;48.654;9.070;2024-02-21T01:36:23;5.80;99.90
15199;DHT22;7700;48.654;9.070;2024-02-21T01:38:48;5.90;99.90
15199;DHT22;7700;48.654;9.070;2024-02-21T01:41:14;5.80;99.90
15199;DHT22;7700;48.654;9.070;2024-02-21T01:43:40;5.90;99.90
15199;DHT22;7700;48.654;9.070;2024-02-21T01:46:05;5.80;99.90
15199;DHT22;7700;48.654;9.070;2024-02-21T01:48:31;5.90;99.90
15199;DHT22;7700;48.654;9.070;2024-02-21T01:50:57;5.90;99.90
15199;DHT22;7700;48.654;9.070;2024-02-21T01:53:25;5.90;99.90
15199;DHT22;7700;48.654;9.070;2024-02-21T01:55:53;5.90;99.90
15199;DHT22;7700;48.654;9.070;2024-02-21T01:58:19;5.90;99.90
15199;DHT22;7700;48.654;9.070;2024-02-21T02:00:46;5.90;99.90
15199;DHT22;7700;48.654;9.070;2024-02-21T02:03:13;5.80;99.90
15199;DHT22;7700;48.654;9.070;2024-02-21T02:05:43;5.80;99.90
15199;DHT22;7700;48.654;9.070;2024-02-21T02:08:09;5.80;99.90
15199;DHT22;7700;48.654;9.070;2024-02-21T02:10:35;5.70;99.90
15199;DHT22;7700;48.654;9.070;2024-02-21T02:13:01;5.70;99.90
15199;DHT22;7700;48.654;9.070;2024-02-21T02:15:26;5.70;99.90
15199;DHT22;7700;48.654;9.070;2024-02-21T02:17:52;5.80;99.90
15199;DHT22;7700;48.654;9.070;2024-02-21T02:20:17;5.80;99.90
15199;DHT22;7700;48.654;9.070;2024-02-21T02:22:43;5.80;99.90
15199;DHT22;7700;48.654;9.070;2024-02-21T02:25:11;5.80;99.90
15199;DHT22;7700;48.654;9.070;2024-02-21T02:27:43;5.80;99.90
15199;DHT22;7700;48.654;9.070;2024-02-21T02:30:12;5.80;99.90
15199;DHT22;7700;48.654;9.070;2024-02-21T02:32:37;5.80;99.90
15199;DHT22;7700;48.654;9.070;2024-02-21T02:35:03;5.90;99.90
15199;DHT22;7700;48.654;9.070;2024-02-21T02:37:29;5.90;99.90
15199;DHT22;7700;48.654;9.070;2024-02-21T02:39:55;5.90;99.90
15199;DHT22;7700;48.654;9.070;2024-02-21T02:42:20;6.00;99.90
15199;DHT22;7700;48.654;9.070;2024-02-21T02:44:46;6.00;99.90
15199;DHT22;7700;48.654;9.070;2024-02-21T02:47:12;6.00;99.90
15199;DHT22;7700;48.654;9.070;2024-02-21T02:49:37;6.00;99.90
15199;DHT22;7700;48.654;9.070;2024-02-21T02:52:03;6.00;99.90
15199;DHT22;7700;48.654;9.070;2024-02-21T02:54:29;6.00;99.90
15199;DHT22;7700;48.654;9.070;2024-02-21T02:56:54;6.00;99.90
15199;DHT22;7700;48.654;9.070;2024-02-21T02:59:20;6.00;99.90
15199;DHT22;7700;48.654;9.070;2024-02-21T03:01:45;6.00;99.90
15199;DHT22;7700;48.654;9.070;2024-02-21T03:04:11;5.90;99.90
15199;DHT22;7700;48.654;9.070;2024-02-21T03:06:36;5.90;99.90
15199;DHT22;7700;48.654;9.070;2024-02-21T03:09:02;5.90;99.90
15199;DHT22;7700;48.654;9.070;2024-02-21T03:11:33;5.90;99.90
15199;DHT22;7700;48.654;9.070;2024-02-21T03:13:58;5.90;99.90
15199;DHT22;7700;48.654;9.070;2024-02-21T03:16:25;5.90;99.90
15199;DHT22;7700;48.654;9.070;2024-02-21T03:18:51;5.90;99.90
15199;DHT22;7700;48.654;9.070;2024-02-21T03:21:16;5.90;99.90
15199;DHT22;7700;48.654;9.070;2024-02-21T03:23:42;5.90;99.90
15199;DHT22;7700;48.654;9.070;2024-02-21T03:26:07;5.90;99.90
15199;DHT22;7700;48.654;9.070;2024-02-21T03:28:33;6.00;99.90
15199;DHT22;7700;48.654;9.070;2024-02-21T03:30:58;6.00;99.90
15199;DHT22;7700;48.654;9.070;2024-02-21T03:33:24;6.10;99.90
15199;DHT22;7700;48.654;9.070;2024-02-21T03:35:49;6.10;99.90
15199;DHT22;7700;48.654;9.070;2024-02-21T03:38:15;6.10;99.90
15199;DHT22;7700;48.654;9.070;2024-02-21T03:40:40;6.00;99.90
15199;DHT22;7700;48.654;9.070;2024-02-21T03:43:06;6.00;99.90
15199;DHT22;7700;48.654;9.070;2024-02-21T03:45:32;6.00;99.90
15199;DHT22;7700;48.654;9.070;2024-02-21T03:47:57;5.90;99.90
15199;DHT22;7700;48.654;9.070;2024-02-21T03:50:24;6.00;99.90
15199;DHT22;7700;48.654;9.070;2024-02-21T03:52:52;6.00;99.90
15199;DHT22;7700;48.654;9.070;2024-02-21T03:55:18;6.00;99.90
15199;DHT22;7700;48.654;9.070;2024-02-21T03:57:44;6.00;99.90
15199;DHT22;7700;48.654;9.070;2024-02-21T04:00:10;6.00;99.90
15199;DHT22;7700;48.654;9.070;2024-02-21T04:02:36;6.00;99.90
15199;DHT22;7700;48.654;9.070;2024-02-21T04:05:02;6.00;99.90
15199;DHT22;7700;48.654;9.070;2024-02-21T04:07:27;5.90;99.90
15199;DHT22;7700;48.654;9.070;2024-02-21T04:09:53;5.90;99.90
15199;DHT22;7700;48.654;9.070;2024-02-21T04:12:19;5.80;99.90
15199;DHT22;7700;48.654;9.070;2024-02-21T04:14:44;5.80;99.90
15199;DHT22;7700;48.654;9.070;2024-02-21T04:17:10;5.70;99.90
15199;DHT22;7700;48.654;9.070;2024-02-21T04:19:35;5.70;99.90
15199;DHT22;7700;48.654;9.070;2024-02-21T04:22:01;5.70;99.90
15199;DHT22;7700;48.654;9.070;2024-02-21T04:24:26;5.70;99.90
15199;DHT22;7700;48.654;9.070;2024-02-21T04:26:52;5.70;99.90
15199;DHT22;7700;48.654;9.070;2024-02-21T04:29:18;5.70;99.90
15199;DHT22;7700;48.654;9.070;2024-02-21T04:31:43;5.70;99.90
15199;DHT22;7700;48.654;9.070;2024-02-21T04:34:09;5.80;99.90
15199;DHT22;7700;48.654;9.070;2024-02-21T04:36:34;5.80;99.90
15199;DHT22;7700;48.654;9.070;2024-02-21T04:39:00;5.80;99.90
15199;DHT22;7700;48.654;9.070;2024-02-21T04:41:26;5.80;99.90
15199;DHT22;7700;48.654;9.070;2024-02-21T04:43:51;5.80;99.90
15199;DHT22;7700;48.654;9.070;2024-02-21T04:46:17;5.80;99.90
15199;DHT22;7700;48.654;9.070;2024-02-21T04:48:42;5.80;99.90
15199;DHT22;7700;48.654;9.070;2024-02-21T04:51:08;5.70;99.90
15199;DHT22;7700;48.654;9.070;2024-02-21T04:53:34;5.70;99.90
15199;DHT22;7700;48.654;9.070;2024-02-21T04:56:00;5.70;99.90
15199;DHT22;7700;48.654;9.070;2024-02-21T04:58:25;5.70;99.90
15199;DHT22;7700;48.654;9.070;2024-02-21T05:00:51;5.70;99.90
15199;DHT22;7700;48.654;9.070;2024-02-21T05:03:17;5.70;99.90
15199;DHT22;7700;48.654;9.070;2024-02-21T05:05:42;5.70;99.90
15199;DHT22;7700;48.654;9.070;2024-02-21T05:08:09;5.70;99.90
15199;DHT22;7700;48.654;9.070;2024-02-21T05:10:35;5.60;99.90
15199;DHT22;7700;48.654;9.070;2024-02-21T05:13:01;5.70;99.90
15199;DHT22;7700;48.654;9.070;2024-02-21T05:15:26;5.60;99.90
15199;DHT22;7700;48.654;9.070;2024-02-21T05:17:52;5.60;99.90
15199;DHT22;7700;48.654;9.070;2024-02-21T05:20:18;5.60;99.90
15199;DHT22;7700;48.654;9.070;2024-02-21T05:22:43;5.60;99.90
15199;DHT22;7700;48.654;9.070;2024-02-21T05:25:09;5.60;99.90
15199;DHT22;7700;48.654;9.070;2024-02-21T05:27:35;5.60;99.90
15199;DHT22;7700;48.654;9.070;2024-02-21T05:30:01;5.50;99.90
15199;DHT22;7700;48.654;9.070;2024-02-21T05:32:26;5.40;99.90
15199;DHT22;7700;48.654;9.070;2024-02-21T05:34:52;5.40;99.90
15199;DHT22;7700;48.654;9.070;2024-02-21T05:37:18;5.20;99.90
15199;DHT22;7700;48.654;9.070;2024-02-21T05:39:43;5.20;99.90
15199;DHT22;7700;48.654;9.070;2024-02-21T05:42:09;5.20;99.90
15199;DHT22;7700;48.654;9.070;2024-02-21T05:44:35;5.20;99.90
15199;DHT22;7700;48.654;9.070;2024-02-21T05:47:00;5.20;99.90
15199;DHT22;7700;48.654;9.070;2024-02-21T05:49:26;5.20;99.90
15199;DHT22;7700;48.654;9.070;2024-02-21T05:51:51;5.10;99.90
15199;DHT22;7700;48.654;9.070;2024-02-21T05:54:17;5.10;99.90
15199;DHT22;7700;48.654;9.070;2024-02-21T05:56:45;5.10;99.90
15199;DHT22;7700;48.654;9.070;2024-02-21T05:59:11;5.10;99.90
15199;DHT22;7700;48.654;9.070;2024-02-21T06:01:37;5.10;99.90
15199;DHT22;7700;48.654;9.070;2024-02-21T06:04:02;5.10;99.90
15199;DHT22;7700;48.654;9.070;2024-02-21T06:06:28;5.10;99.90
15199;DHT22;7700;48.654;9.070;2024-02-21T06:08:53;5.10;99.90
15199;DHT22;7700;48.654;9.070;2024-02-21T06:11:19;5.20;99.90
15199;DHT22;7700;48.654;9.070;2024-02-21T06:13:44;5.20;99.90
15199;DHT22;7700;48.654;9.070;2024-02-21T06:16:10;5.20;99.90
15199;DHT22;7700;48.654;9.070;2024-02-21T06:18:36;5.20;99.90
15199;DHT22;7700;48.654;9.070;2024-02-21T06:21:03;5.20;99.90
15199;DHT22;7700;48.654;9.070;2024-02-21T06:23:28;5.20;99.90
15199;DHT22;7700;48.654;9.070;2024-02-21T06:25:54;5.20;99.90
15199;DHT22;7700;48.654;9.070;2024-02-21T06:28:19;5.30;99.90
15199;DHT22;7700;48.654;9.070;2024-02-21T06:30:46;5.20;99.90
15199;DHT22;7700;48.654;9.070;2024-02-21T06:33:11;5.20;99.90
15199;DHT22;7700;48.654;9.070;2024-02-21T06:35:37;5.20;99.90
15199;DHT22;7700;48.654;9.070;2024-02-21T06:38:06;5.30;99.90
15199;DHT22;7700;48.654;9.070;2024-02-21T06:40:32;5.30;99.90
15199;DHT22;7700;48.654;9.070;2024-02-21T06:43:04;5.30;99.90
15199;DHT22;7700;48.654;9.070;2024-02-21T06:45:29;5.30;99.90
15199;DHT22;7700;48.654;9.070;2024-02-21T06:47:55;5.40;99.90
15199;DHT22;7700;48.654;9.070;2024-02-21T06:50:20;5.50;99.90
15199;DHT22;7700;48.654;9.070;2024-02-21T06:52:46;5.60;99.90
15199;DHT22;7700;48.654;9.070;2024-02-21T06:55:11;5.70;99.90
15199;DHT22;7700;48.654;9.070;2024-02-21T06:57:37;5.80;99.90
15199;DHT22;7700;48.654;9.070;2024-02-21T07:00:03;5.90;99.90
15199;DHT22;7700;48.654;9.070;2024-02-21T07:02:28;6.10;99.90
15199;DHT22;7700;48.654;9.070;2024-02-21T07:04:54;6.20;99.90
15199;DHT22;7700;48.654;9.070;2024-02-21T07:07:19;6.30;99.90
15199;DHT22;7700;48.654;9.070;2024-02-21T07:09:45;6.50;99.90
15199;DHT22;7700;48.654;9.070;2024-02-21T07:12:13;6.70;99.90
15199;DHT22;7700;48.654;9.070;2024-02-21T07:14:39;7.30;99.90
15199;DHT22;7700;48.654;9.070;2024-02-21T07:17:05;7.80;99.90
15199;DHT22;7700;48.654;9.070;2024-02-21T07:19:30;8.10;99.90
15199;DHT22;7700;48.654;9.070;2024-02-21T07:21:56;8.40;99.90
15199;DHT22;7700;48.654;9.070;2024-02-21T07:24:22;8.60;99.90
15199;DHT22;7700;48.654;9.070;2024-02-21T07:26:47;8.70;99.90
15199;DHT22;7700;48.654;9.070;2024-02-21T07:29:13;8.90;99.90
15199;DHT22;7700;48.654;9.070;2024-02-21T07:31:43;9.00;99.90
15199;DHT22;7700;48.654;9.070;2024-02-21T07:34:09;9.10;99.90
15199;DHT22;7700;48.654;9.070;2024-02-21T07:36:35;9.30;99.90
15199;DHT22;7700;48.654;9.070;2024-02-21T07:39:00;9.60;99.90
15199;DHT22;7700;48.654;9.070;2024-02-21T07:41:26;10.10;99.90
15199;DHT22;7700;48.654;9.070;2024-02-21T07:43:52;10.60;99.90
15199;DHT22;7700;48.654;9.070;2024-02-21T07:46:20;10.80;99.90
15199;DHT22;7700;48.654;9.070;2024-02-21T07:48:46;10.90;99.90
15199;DHT22;7700;48.654;9.070;2024-02-21T07:51:12;10.80;99.90
15199;DHT22;7700;48.654;9.070;2024-02-21T07:53:41;10.80;99.90
15199;DHT22;7700;48.654;9.070;2024-02-21T07:56:14;10.20;99.90
15199;DHT22;7700;48.654;9.070;2024-02-21T07:58:43;9.90;99.90
15199;DHT22;7700;48.654;9.070;2024-02-21T08:01:09;9.60;99.90
15199;DHT22;7700;48.654;9.070;2024-02-21T08:03:35;9.60;99.90
15199;DHT22;7700;48.654;9.070;2024-02-21T08:06:02;9.60;99.90
15199;DHT22;7700;48.654;9.070;2024-02-21T08:08:28;9.60;99.90
15199;DHT22;7700;48.654;9.070;2024-02-21T08:10:53;9.60;99.90
15199;DHT22;7700;48.654;9.070;2024-02-21T08:13:19;9.60;99.90
15199;DHT22;7700;48.654;9.070;2024-02-21T08:15:44;9.80;99.90
15199;DHT22;7700;48.654;9.070;2024-02-21T08:18:10;10.00;99.90
15199;DHT22;7700;48.654;9.070;2024-02-21T08:20:35;10.00;99.90
15199;DHT22;7700;48.654;9.070;2024-02-21T08:23:01;10.00;99.90
15199;DHT22;7700;48.654;9.070;2024-02-21T08:25:26;10.00;99.90
15199;DHT22;7700;48.654;9.070;2024-02-21T08:27:58;9.90;99.90
15199;DHT22;7700;48.654;9.070;2024-02-21T08:30:23;9.80;99.90
15199;DHT22;7700;48.654;9.070;2024-02-21T08:32:49;9.80;99.90
15199;DHT22;7700;48.654;9.070;2024-02-21T08:35:15;9.80;99.90
15199;DHT22;7700;48.654;9.070;2024-02-21T08:37:40;10.00;99.90
15199;DHT22;7700;48.654;9.070;2024-02-21T08:40:08;10.20;99.90
15199;DHT22;7700;48.654;9.070;2024-02-21T08:42:35;10.30;99.90
15199;DHT22;7700;48.654;9.070;2024-02-21T08:45:02;10.10;99.90
15199;DHT22;7700;48.654;9.070;2024-02-21T08:47:28;10.00;99.90
15199;DHT22;7700;48.654;9.070;2024-02-21T08:49:53;10.10;99.90
15199;DHT22;7700;48.654;9.070;2024-02-21T08:52:19;10.10;99.90
15199;DHT22;7700;48.654;9.070;2024-02-21T08:54:45;10.20;99.90
15199;DHT22;7700;48.654;9.070;2024-02-21T08:57:10;10.20;99.90
15199;DHT22;7700;48.654;9.070;2024-02-21T08:59:36;10.20;99.90
15199;DHT22;7700;48.654;9.070;2024-02-21T09:02:01;10.10;99.90
15199;DHT22;7700;48.654;9.070;2024-02-21T09:04:29;9.90;99.90
15199;DHT22;7700;48.654;9.070;2024-02-21T09:06:54;9.70;99.90
15199;DHT22;7700;48.654;9.070;2024-02-21T09:09:20;9.60;99.90
15199;DHT22;7700;48.654;9.070;2024-02-21T09:11:45;9.50;99.90
15199;DHT22;7700;48.654;9.070;2024-02-21T09:14:11;9.40;99.90
15199;DHT22;7700;48.654;9.070;2024-02-21T09:16:37;9.40;99.90
15199;DHT22;7700;48.654;9.070;2024-02-21T09:19:02;9.40;99.90
15199;DHT22;7700;48.654;9.070;2024-02-21T09:21:28;9.40;99.90
15199;DHT22;7700;48.654;9.070;2024-02-21T09:23:54;9.50;99.90
15199;DHT22;7700;48.654;9.070;2024-02-21T09:26:20;9.60;99.90
15199;DHT22;7700;48.654;9.070;2024-02-21T09:28:45;9.60;99.90
15199;DHT22;7700;48.654;9.070;2024-02-21T09:31:11;9.70;99.90
15199;DHT22;7700;48.654;9.070;2024-02-21T09:33:36;9.90;99.90
15199;DHT22;7700;48.654;9.070;2024-02-21T09:36:02;10.10;99.90
15199;DHT22;7700;48.654;9.070;2024-02-21T09:38:31;10.50;99.90
15199;DHT22;7700;48.654;9.070;2024-02-21T09:41:00;10.80;99.90
15199;DHT22;7700;48.654;9.070;2024-02-21T09:43:26;11.20;99.90
15199;DHT22;7700;48.654;9.070;2024-02-21T09:45:54;11.10;99.90
15199;DHT22;7700;48.654;9.070;2024-02-21T09:51:15;11.40;99.90
15199;DHT22;7700;48.654;9.070;2024-02-21T09:53:42;11.20;99.90
15199;DHT22;7700;48.654;9.070;2024-02-21T09:56:08;11.20;99.90
15199;DHT22;7700;48.654;9.070;2024-02-21T09:58:34;11.30;99.90
15199;DHT22;7700;48.654;9.070;2024-02-21T10:03:29;12.10;99.90
15199;DHT22;7700;48.654;9.070;2024-02-21T10:05:55;12.70;99.90
15199;DHT22;7700;48.654;9.070;2024-02-21T10:08:21;13.10;99.90
15199;DHT22;7700;48.654;9.070;2024-02-21T10:10:46;13.50;99.90
15199;DHT22;7700;48.654;9.070;2024-02-21T10:13:29;13.90;99.90
15199;DHT22;7700;48.654;9.070;2024-02-21T10:16:05;14.40;99.90
15199;DHT22;7700;48.654;9.070;2024-02-21T10:18:31;14.10;99.90
15199;DHT22;7700;48.654;9.070;2024-02-21T10:21:07;13.50;99.90
15199;DHT22;7700;48.654;9.070;2024-02-21T10:23:45;13.20;99.90
15199;DHT22;7700;48.654;9.070;2024-02-21T10:26:11;13.20;99.90
15199;DHT22;7700;48.654;9.070;2024-02-21T10:28:37;13.10;99.90
15199;DHT22;7700;48.654;9.070;2024-02-21T10:31:26;13.10;99.90
15199;DHT22;7700;48.654;9.070;2024-02-21T10:34:01;13.30;99.90
15199;DHT22;7700;48.654;9.070;2024-02-21T10:36:29;13.50;99.90
15199;DHT22;7700;48.654;9.070;2024-02-21T10:38:55;13.90;99.90
15199;DHT22;7700;48.654;9.070;2024-02-21T10:41:21;14.10;99.90
15199;DHT22;7700;48.654;9.070;2024-02-21T10:43:50;14.10;99.90
15199;DHT22;7700;48.654;9.070;2024-02-21T10:46:21;14.40;99.90
15199;DHT22;7700;48.654;9.070;2024-02-21T10:48:48;14.70;99.90
15199;DHT22;7700;48.654;9.070;2024-02-21T10:51:18;14.60;98.50
15199;DHT22;7700;48.654;9.070;2024-02-21T10:56:38;14.30;99.00
15199;DHT22;7700;48.654;9.070;2024-02-21T10:59:07;14.20;99.10
15199;DHT22;7700;48.654;9.070;2024-02-21T11:01:32;14.10;97.80
15199;DHT22;7700;48.654;9.070;2024-02-21T11:04:01;14.10;98.30
15199;DHT22;7700;48.654;9.070;2024-02-21T11:06:28;14.20;98.20
15199;DHT22;7700;48.654;9.070;2024-02-21T11:09:05;14.30;98.60
15199;DHT22;7700;48.654;9.070;2024-02-21T11:14:07;14.10;97.20
15199;DHT22;7700;48.654;9.070;2024-02-21T11:16:40;13.90;97.90
15199;DHT22;7700;48.654;9.070;2024-02-21T11:19:22;13.90;98.50
15199;DHT22;7700;48.654;9.070;2024-02-21T11:21:49;13.70;98.60
15199;DHT22;7700;48.654;9.070;2024-02-21T11:24:32;13.60;99.90
15199;DHT22;7700;48.654;9.070;2024-02-21T11:27:14;13.70;99.70
15199;DHT22;7700;48.654;9.070;2024-02-21T11:29:46;13.60;99.90
15199;DHT22;7700;48.654;9.070;2024-02-21T11:32:16;13.80;99.90
15199;DHT22;7700;48.654;9.070;2024-02-21T11:34:56;13.50;99.70
15199;DHT22;7700;48.654;9.070;2024-02-21T11:37:25;13.40;99.90
15199;DHT22;7700;48.654;9.070;2024-02-21T11:39:51;13.10;99.90
15199;DHT22;7700;48.654;9.070;2024-02-21T11:42:18;13.00;99.90
15199;DHT22;7700;48.654;9.070;2024-02-21T11:44:43;13.00;99.90
15199;DHT22;7700;48.654;9.070;2024-02-21T11:47:09;12.90;99.90
15199;DHT22;7700;48.654;9.070;2024-02-21T11:49:42;12.80;99.90
15199;DHT22;7700;48.654;9.070;2024-02-21T11:52:08;12.70;99.90
15199;DHT22;7700;48.654;9.070;2024-02-21T11:54:34;12.70;99.90
15199;DHT22;7700;48.654;9.070;2024-02-21T11:57:00;12.70;99.90
15199;DHT22;7700;48.654;9.070;2024-02-21T11:59:27;12.80;99.90
15199;DHT22;7700;48.654;9.070;2024-02-21T12:01:54;12.90;99.90
15199;DHT22;7700;48.654;9.070;2024-02-21T12:04:20;13.10;99.50
15199;DHT22;7700;48.654;9.070;2024-02-21T12:06:46;13.10;99.40
15199;DHT22;7700;48.654;9.070;2024-02-21T12:09:18;13.20;98.50
15199;DHT22;7700;48.654;9.070;2024-02-21T12:11:44;13.30;98.50
15199;DHT22;7700;48.654;9.070;2024-02-21T12:14:10;13.30;97.50
15199;DHT22;7700;48.654;9.070;2024-02-21T12:16:36;13.50;97.50
15199;DHT22;7700;48.654;9.070;2024-02-21T12:19:05;13.50;97.20
15199;DHT22;7700;48.654;9.070;2024-02-21T12:21:31;13.20;96.30
15199;DHT22;7700;48.654;9.070;2024-02-21T12:23:58;13.10;96.80
15199;DHT22;7700;48.654;9.070;2024-02-21T12:26:24;13.20;97.10
15199;DHT22;7700;48.654;9.070;2024-02-21T12:28:51;13.40;96.90
15199;DHT22;7700;48.654;9.070;2024-02-21T12:31:16;13.60;97.00
15199;DHT22;7700;48.654;9.070;2024-02-21T12:33:43;13.80;96.60
15199;DHT22;7700;48.654;9.070;2024-02-21T12:36:08;13.70;95.30
15199;DHT22;7700;48.654;9.070;2024-02-21T12:38:34;13.60;95.60
15199;DHT22;7700;48.654;9.070;2024-02-21T12:41:00;13.70;96.90
15199;DHT22;7700;48.654;9.070;2024-02-21T12:43:26;13.80;95.80
15199;DHT22;7700;48.654;9.070;2024-02-21T12:45:52;13.80;95.70
15199;DHT22;7700;48.654;9.070;2024-02-21T12:48:18;13.70;95.30
15199;DHT22;7700;48.654;9.070;2024-02-21T12:50:50;13.70;96.00
15199;DHT22;7700;48.654;9.070;2024-02-21T12:53:17;13.70;94.00
15199;DHT22;7700;48.654;9.070;2024-02-21T12:55:45;13.50;93.00
15199;DHT22;7700;48.654;9.070;2024-02-21T12:58:10;13.20;93.20
15199;DHT22;7700;48.654;9.070;2024-02-21T13:00:36;13.20;94.40
15199;DHT22;7700;48.654;9.070;2024-02-21T13:03:03;12.90;93.90
15199;DHT22;7700;48.654;9.070;2024-02-21T13:05:28;12.90;94.80
15199;DHT22;7700;48.654;9.070;2024-02-21T13:07:54;12.80;94.20
15199;DHT22;7700;48.654;9.070;2024-02-21T13:10:19;12.80;94.70
15199;DHT22;7700;48.654;9.070;2024-02-21T13:12:45;12.90;95.80
15199;DHT22;7700;48.654;9.070;2024-02-21T13:15:10;12.90;94.80
15199;DHT22;7700;48.654;9.070;2024-02-21T13:17:37;12.80;93.70
15199;DHT22;7700;48.654;9.070;2024-02-21T13:20:03;12.70;94.60
15199;DHT22;7700;48.654;9.070;2024-02-21T13:22:29;12.70;95.50
15199;DHT22;7700;48.654;9.070;2024-02-21T13:24:54;12.70;96.20
15199;DHT22;7700;48.654;9.070;2024-02-21T13:27:20;12.80;98.10
15199;DHT22;7700;48.654;9.070;2024-02-21T13:29:45;13.00;96.20
15199;DHT22;7700;48.654;9.070;2024-02-21T13:32:11;13.10;95.60
15199;DHT22;7700;48.654;9.070;2024-02-21T13:34:36;13.30;94.60
15199;DHT22;7700;48.654;9.070;2024-02-21T13:37:02;13.40;94.80
15199;DHT22;7700;48.654;9.070;2024-02-21T13:39:29;13.50;94.20
15199;DHT22;7700;48.654;9.070;2024-02-21T13:41:55;13.70;94.70
15199;DHT22;7700;48.654;9.070;2024-02-21T13:44:21;13.70;94.60
15199;DHT22;7700;48.654;9.070;2024-02-21T13:46:46;13.60;94.70
15199;DHT22;7700;48.654;9.070;2024-02-21T13:49:12;13.40;94.70
15199;DHT22;7700;48.654;9.070;2024-02-21T13:51:37;13.30;96.00
15199;DHT22;7700;48.654;9.070;2024-02-21T13:54:03;13.30;97.20
15199;DHT22;7700;48.654;9.070;2024-02-21T13:56:30;13.20;97.30
15199;DHT22;7700;48.654;9.070;2024-02-21T13:58:57;13.20;99.20
15199;DHT22;7700;48.654;9.070;2024-02-21T14:01:23;13.10;97.60
15199;DHT22;7700;48.654;9.070;2024-02-21T14:03:48;13.10;98.30
15199;DHT22;7700;48.654;9.070;2024-02-21T14:06:14;13.00;98.70
15199;DHT22;7700;48.654;9.070;2024-02-21T14:08:39;13.00;99.60
15199;DHT22;7700;48.654;9.070;2024-02-21T14:11:06;13.00;99.90
15199;DHT22;7700;48.654;9.070;2024-02-21T14:13:32;13.00;99.20
15199;DHT22;7700;48.654;9.070;2024-02-21T14:15:57;12.80;98.90
15199;DHT22;7700;48.654;9.070;2024-02-21T14:18:23;12.90;99.50
15199;DHT22;7700;48.654;9.070;2024-02-21T14:20:48;12.90;99.60
15199;DHT22;7700;48.654;9.070;2024-02-21T14:23:14;12.90;99.30
15199;DHT22;7700;48.654;9.070;2024-02-21T14:25:40;12.80;99.10
15199;DHT22;7700;48.654;9.070;2024-02-21T14:28:07;12.80;99.80
15199;DHT22;7700;48.654;9.070;2024-02-21T14:30:35;12.90;99.80
15199;DHT22;7700;48.654;9.070;2024-02-21T14:33:01;12.90;99.90
15199;DHT22;7700;48.654;9.070;2024-02-21T14:35:27;13.10;99.90
15199;DHT22;7700;48.654;9.070;2024-02-21T14:37:52;13.10;99.80
15199;DHT22;7700;48.654;9.070;2024-02-21T14:40:26;13.20;99.60
15199;DHT22;7700;48.654;9.070;2024-02-21T14:42:52;13.20;99.50
15199;DHT22;7700;48.654;9.070;2024-02-21T14:45:17;13.30;99.00
15199;DHT22;7700;48.654;9.070;2024-02-21T14:47:43;13.30;99.60
15199;DHT22;7700;48.654;9.070;2024-02-21T14:50:09;13.30;99.10
15199;DHT22;7700;48.654;9.070;2024-02-21T14:52:35;13.20;99.50
15199;DHT22;7700;48.654;9.070;2024-02-21T14:55:01;13.10;99.80
15199;DHT22;7700;48.654;9.070;2024-02-21T14:57:28;13.10;99.90
15199;DHT22;7700;48.654;9.070;2024-02-21T14:59:53;13.00;99.80
15199;DHT22;7700;48.654;9.070;2024-02-21T15:02:22;12.90;99.90
15199;DHT22;7700;48.654;9.070;2024-02-21T15:04:48;12.70;99.90
15199;DHT22;7700;48.654;9.070;2024-02-21T15:07:13;12.70;99.90
15199;DHT22;7700;48.654;9.070;2024-02-21T15:09:39;12.70;99.90
15199;DHT22;7700;48.654;9.070;2024-02-21T15:12:05;12.70;99.90
15199;DHT22;7700;48.654;9.070;2024-02-21T15:14:31;12.80;99.90
15199;DHT22;7700;48.654;9.070;2024-02-21T15:16:57;12.70;99.90
15199;DHT22;7700;48.654;9.070;2024-02-21T15:19:22;12.70;99.90
15199;DHT22;7700;48.654;9.070;2024-02-21T15:21:48;12.70;99.90
15199;DHT22;7700;48.654;9.070;2024-02-21T15:24:13;12.70;99.90
15199;DHT22;7700;48.654;9.070;2024-02-21T15:26:39;12.60;99.90
15199;DHT22;7700;48.654;9.070;2024-02-21T15:29:04;12.50;99.90
15199;DHT22;7700;48.654;9.070;2024-02-21T15:31:30;12.50;99.90
15199;DHT22;7700;48.654;9.070;2024-02-21T15:33:56;12.40;99.90
15199;DHT22;7700;48.654;9.070;2024-02-21T15:36:21;12.40;99.90
15199;DHT22;7700;48.654;9.070;2024-02-21T15:38:47;12.30;99.90
15199;DHT22;7700;48.654;9.070;2024-02-21T15:41:13;12.30;99.90
15199;DHT22;7700;48.654;9.070;2024-02-21T15:43:39;12.20;99.90
15199;DHT22;7700;48.654;9.070;2024-02-21T15:46:05;12.20;99.90
15199;DHT22;7700;48.654;9.070;2024-02-21T15:48:31;12.10;99.90
15199;DHT22;7700;48.654;9.070;2024-02-21T15:51:00;12.10;99.90
15199;DHT22;7700;48.654;9.070;2024-02-21T15:53:25;12.00;99.90
15199;DHT22;7700;48.654;9.070;2024-02-21T15:55:51;12.00;99.90
15199;DHT22;7700;48.654;9.070;2024-02-21T15:58:16;11.90;99.90
15199;DHT22;7700;48.654;9.070;2024-02-21T16:00:44;11.90;99.90